sensor_id;sensor_type;location;lat;lon;timestamp;temperature;humidity
60495;DHT22;46342;49.046;11.920;2022-08-01T03:55:05;23.20;43.20
60495;DHT22;46342;49.046;11.920;2022-08-01T03:57:32;23.20;43.20
60495;DHT22;46342;49.046;11.920;2022-08-01T03:59:58;23.10;43.20
60495;DHT22;46342;49.046;11.920;2022-08-01T04:02:24;23.20;43.20
60495;DHT22;46342;49.046;11.920;2022-08-01T04:04:50;23.20;43.20
60495;DHT22;46342;49.046;11.920;2022-08-01T04:07:22;23.20;43.30
60495;DHT22;46342;49.046;11.920;2022-08-01T04:09:48;23.20;43.30
60495;DHT22;46342;49.046;11.920;2022-08-01T04:12:14;23.20;43.30
60495;DHT22;46342;49.046;11.920;2022-08-01T04:14:39;23.20;43.30
60495;DHT22;46342;49.046;11.920;2022-08-01T04:17:05;23.10;43.20
60495;DHT22;46342;49.046;11.920;2022-08-01T04:19:30;23.20;43.40
60495;DHT22;46342;49.046;11.920;2022-08-01T04:21:56;23.20;43.40
60495;DHT22;46342;49.046;11.920;2022-08-01T04:24:21;23.20;43.40
60495;DHT22;46342;49.046;11.920;2022-08-01T04:26:48;23.10;43.40
60495;DHT22;46342;49.046;11.920;2022-08-01T04:29:15;23.10;43.40
60495;DHT22;46342;49.046;11.920;2022-08-01T04:31:42;23.20;43.50
60495;DHT22;46342;49.046;11.920;2022-08-01T04:34:08;23.20;43.50
60495;DHT22;46342;49.046;11.920;2022-08-01T04:36:35;23.10;43.50
60495;DHT22;46342;49.046;11.920;2022-08-01T04:39:01;23.20;43.60
60495;DHT22;46342;49.046;11.920;2022-08-01T04:41:27;23.20;43.60
60495;DHT22;46342;49.046;11.920;2022-08-01T04:43:54;23.20;43.60
60495;DHT22;46342;49.046;11.920;2022-08-01T04:46:20;23.20;43.60
60495;DHT22;46342;49.046;11.920;2022-08-01T04:48:47;23.20;43.70
60495;DHT22;46342;49.046;11.920;2022-08-01T04:51:14;23.20;43.70
60495;DHT22;46342;49.046;11.920;2022-08-01T04:53:43;23.20;43.70
60495;DHT22;46342;49.046;11.920;2022-08-01T04:56:08;23.20;43.70
60495;DHT22;46342;49.046;11.920;2022-08-01T04:58:34;23.20;43.80
60495;DHT22;46342;49.046;11.920;2022-08-01T05:00:59;23.20;43.80
60495;DHT22;46342;49.046;11.920;2022-08-01T05:03:25;23.20;43.80
60495;DHT22;46342;49.046;11.920;2022-08-01T05:05:50;23.20;43.80
60495;DHT22;46342;49.046;11.920;2022-08-01T05:08:16;23.20;43.90
60495;DHT22;46342;49.046;11.920;2022-08-01T05:10:41;23.20;43.90
60495;DHT22;46342;49.046;11.920;2022-08-01T05:13:07;23.30;44.00
60495;DHT22;46342;49.046;11.920;2022-08-01T05:15:34;23.30;44.10
60495;DHT22;46342;49.046;11.920;2022-08-01T05:17:59;23.30;44.20
60495;DHT22;46342;49.046;11.920;2022-08-01T05:20:25;23.30;44.20
60495;DHT22;46342;49.046;11.920;2022-08-01T05:22:50;23.30;44.20
60495;DHT22;46342;49.046;11.920;2022-08-01T05:25:16;23.30;44.40
60495;DHT22;46342;49.046;11.920;2022-08-01T05:27:41;23.40;44.40
60495;DHT22;46342;49.046;11.920;2022-08-01T05:30:07;23.40;45.10
60495;DHT22;46342;49.046;11.920;2022-08-01T05:32:33;23.40;44.50
60495;DHT22;46342;49.046;11.920;2022-08-01T05:34:58;23.50;44.70
60495;DHT22;46342;49.046;11.920;2022-08-01T05:37:24;23.50;44.70
60495;DHT22;46342;49.046;11.920;2022-08-01T05:39:50;23.50;44.60
60495;DHT22;46342;49.046;11.920;2022-08-01T05:42:15;23.60;44.70
60495;DHT22;46342;49.046;11.920;2022-08-01T05:44:41;23.60;44.70
60495;DHT22;46342;49.046;11.920;2022-08-01T05:47:06;23.60;44.70
60495;DHT22;46342;49.046;11.920;2022-08-01T05:49:32;23.70;44.90
60495;DHT22;46342;49.046;11.920;2022-08-01T05:51:57;23.70;45.00
60495;DHT22;46342;49.046;11.920;2022-08-01T05:54:23;23.70;45.10
60495;DHT22;46342;49.046;11.920;2022-08-01T05:56:48;23.70;45.00
60495;DHT22;46342;49.046;11.920;2022-08-01T05:59:14;23.80;45.30
60495;DHT22;46342;49.046;11.920;2022-08-01T06:01:39;23.70;45.10
60495;DHT22;46342;49.046;11.920;2022-08-01T06:04:05;23.80;45.80
60495;DHT22;46342;49.046;11.920;2022-08-01T06:06:30;23.80;45.10
60495;DHT22;46342;49.046;11.920;2022-08-01T06:08:56;23.80;45.30
60495;DHT22;46342;49.046;11.920;2022-08-01T06:11:21;23.80;45.30
60495;DHT22;46342;49.046;11.920;2022-08-01T06:13:47;23.90;45.20
60495;DHT22;46342;49.046;11.920;2022-08-01T06:16:12;23.90;45.40
60495;DHT22;46342;49.046;11.920;2022-08-01T06:18:38;23.90;45.40
60495;DHT22;46342;49.046;11.920;2022-08-01T06:21:03;24.00;45.50
60495;DHT22;46342;49.046;11.920;2022-08-01T06:23:29;24.00;45.70
60495;DHT22;46342;49.046;11.920;2022-08-01T06:25:54;24.00;45.60
60495;DHT22;46342;49.046;11.920;2022-08-01T06:28:20;24.10;45.60
60495;DHT22;46342;49.046;11.920;2022-08-01T06:30:46;24.10;45.60
60495;DHT22;46342;49.046;11.920;2022-08-01T06:33:11;24.10;45.60
60495;DHT22;46342;49.046;11.920;2022-08-01T06:35:37;24.20;45.80
60495;DHT22;46342;49.046;11.920;2022-08-01T06:38:02;24.30;45.80
60495;DHT22;46342;49.046;11.920;2022-08-01T06:40:28;24.30;45.80
60495;DHT22;46342;49.046;11.920;2022-08-01T06:42:54;24.30;45.80
60495;DHT22;46342;49.046;11.920;2022-08-01T06:45:19;24.40;45.90
60495;DHT22;46342;49.046;11.920;2022-08-01T06:47:47;24.40;45.70
60495;DHT22;46342;49.046;11.920;2022-08-01T06:50:13;24.40;45.90
60495;DHT22;46342;49.046;11.920;2022-08-01T06:52:40;24.50;46.40
60495;DHT22;46342;49.046;11.920;2022-08-01T06:55:06;24.50;45.80
60495;DHT22;46342;49.046;11.920;2022-08-01T06:57:31;24.60;46.00
60495;DHT22;46342;49.046;11.920;2022-08-01T07:00:00;24.60;46.00
60495;DHT22;46342;49.046;11.920;2022-08-01T07:02:25;24.70;46.00
60495;DHT22;46342;49.046;11.920;2022-08-01T07:04:51;24.80;46.20
60495;DHT22;46342;49.046;11.920;2022-08-01T07:07:17;24.80;46.20
60495;DHT22;46342;49.046;11.920;2022-08-01T07:09:42;24.90;46.20
60495;DHT22;46342;49.046;11.920;2022-08-01T07:12:08;24.90;46.10
60495;DHT22;46342;49.046;11.920;2022-08-01T07:14:34;25.00;46.00
60495;DHT22;46342;49.046;11.920;2022-08-01T07:16:59;25.10;46.00
60495;DHT22;46342;49.046;11.920;2022-08-01T07:19:25;25.10;46.00
60495;DHT22;46342;49.046;11.920;2022-08-01T07:21:50;25.20;46.20
60495;DHT22;46342;49.046;11.920;2022-08-01T07:24:16;25.30;46.20
60495;DHT22;46342;49.046;11.920;2022-08-01T07:26:42;25.30;46.20
60495;DHT22;46342;49.046;11.920;2022-08-01T07:29:08;25.40;46.10
60495;DHT22;46342;49.046;11.920;2022-08-01T07:31:33;25.50;46.10
60495;DHT22;46342;49.046;11.920;2022-08-01T07:33:59;25.60;46.20
60495;DHT22;46342;49.046;11.920;2022-08-01T07:36:24;25.60;46.10
60495;DHT22;46342;49.046;11.920;2022-08-01T07:38:50;25.70;46.00
60495;DHT22;46342;49.046;11.920;2022-08-01T07:41:15;25.80;46.10
60495;DHT22;46342;49.046;11.920;2022-08-01T07:43:41;25.90;46.00
60495;DHT22;46342;49.046;11.920;2022-08-01T07:46:06;25.90;45.80
60495;DHT22;46342;49.046;11.920;2022-08-01T07:48:32;26.00;45.80
60495;DHT22;46342;49.046;11.920;2022-08-01T07:50:58;26.00;45.70
60495;DHT22;46342;49.046;11.920;2022-08-01T07:53:23;26.10;45.70
60495;DHT22;46342;49.046;11.920;2022-08-01T07:55:49;26.10;45.70
60495;DHT22;46342;49.046;11.920;2022-08-01T07:58:15;26.20;45.80
60495;DHT22;46342;49.046;11.920;2022-08-01T08:00:40;26.30;45.70
60495;DHT22;46342;49.046;11.920;2022-08-01T08:03:06;26.30;45.60
60495;DHT22;46342;49.046;11.920;2022-08-01T08:05:31;26.40;45.60
60495;DHT22;46342;49.046;11.920;2022-08-01T08:08:09;26.50;45.60
60495;DHT22;46342;49.046;11.920;2022-08-01T08:10:35;26.60;45.60
60495;DHT22;46342;49.046;11.920;2022-08-01T08:13:01;26.60;45.50
60495;DHT22;46342;49.046;11.920;2022-08-01T08:15:27;26.70;45.40
60495;DHT22;46342;49.046;11.920;2022-08-01T08:17:53;26.80;45.40
60495;DHT22;46342;49.046;11.920;2022-08-01T08:20:18;26.90;45.40
60495;DHT22;46342;49.046;11.920;2022-08-01T08:22:46;26.90;45.20
60495;DHT22;46342;49.046;11.920;2022-08-01T08:25:12;27.00;45.30
60495;DHT22;46342;49.046;11.920;2022-08-01T08:27:37;27.00;45.10
60495;DHT22;46342;49.046;11.920;2022-08-01T08:30:03;27.10;45.00
60495;DHT22;46342;49.046;11.920;2022-08-01T08:32:32;27.10;44.90
60495;DHT22;46342;49.046;11.920;2022-08-01T08:34:58;27.10;44.80
60495;DHT22;46342;49.046;11.920;2022-08-01T08:37:23;27.10;44.70
60495;DHT22;46342;49.046;11.920;2022-08-01T08:39:49;27.10;44.30
60495;DHT22;46342;49.046;11.920;2022-08-01T08:42:14;27.10;44.60
60495;DHT22;46342;49.046;11.920;2022-08-01T08:44:40;27.10;44.60
60495;DHT22;46342;49.046;11.920;2022-08-01T08:47:06;27.10;44.60
60495;DHT22;46342;49.046;11.920;2022-08-01T08:49:32;27.10;44.60
60495;DHT22;46342;49.046;11.920;2022-08-01T08:51:58;27.10;44.80
60495;DHT22;46342;49.046;11.920;2022-08-01T08:54:24;27.20;44.90
60495;DHT22;46342;49.046;11.920;2022-08-01T08:56:51;27.20;44.80
60495;DHT22;46342;49.046;11.920;2022-08-01T08:59:17;27.20;44.60
60495;DHT22;46342;49.046;11.920;2022-08-01T09:01:43;27.30;44.70
60495;DHT22;46342;49.046;11.920;2022-08-01T09:04:09;27.30;44.70
60495;DHT22;46342;49.046;11.920;2022-08-01T09:06:34;27.30;44.60
60495;DHT22;46342;49.046;11.920;2022-08-01T09:09:00;27.30;44.50
60495;DHT22;46342;49.046;11.920;2022-08-01T09:11:26;27.40;44.40
60495;DHT22;46342;49.046;11.920;2022-08-01T09:16:38;27.50;44.40
60495;DHT22;46342;49.046;11.920;2022-08-01T09:19:11;27.50;44.40
60495;DHT22;46342;49.046;11.920;2022-08-01T09:21:37;27.60;44.40
60495;DHT22;46342;49.046;11.920;2022-08-01T09:24:03;27.60;44.40
60495;DHT22;46342;49.046;11.920;2022-08-01T09:26:32;27.70;44.40
60495;DHT22;46342;49.046;11.920;2022-08-01T09:28:58;27.70;44.30
60495;DHT22;46342;49.046;11.920;2022-08-01T09:31:25;27.80;44.20
60495;DHT22;46342;49.046;11.920;2022-08-01T09:33:58;27.80;44.10
60495;DHT22;46342;49.046;11.920;2022-08-01T09:36:26;27.80;43.90
60495;DHT22;46342;49.046;11.920;2022-08-01T09:38:53;27.80;43.80
60495;DHT22;46342;49.046;11.920;2022-08-01T09:41:28;27.80;43.80
60495;DHT22;46342;49.046;11.920;2022-08-01T09:43:54;27.90;43.90
60495;DHT22;46342;49.046;11.920;2022-08-01T09:46:19;27.90;43.40
60495;DHT22;46342;49.046;11.920;2022-08-01T09:48:55;27.90;43.50
60495;DHT22;46342;49.046;11.920;2022-08-01T09:51:27;27.90;43.60
60495;DHT22;46342;49.046;11.920;2022-08-01T09:53:53;28.00;43.60
60495;DHT22;46342;49.046;11.920;2022-08-01T09:56:19;28.00;43.50
60495;DHT22;46342;49.046;11.920;2022-08-01T09:58:48;28.00;43.50
60495;DHT22;46342;49.046;11.920;2022-08-01T10:01:14;28.10;43.50
60495;DHT22;46342;49.046;11.920;2022-08-01T10:03:39;28.10;43.50
60495;DHT22;46342;49.046;11.920;2022-08-01T10:06:20;28.10;43.50
60495;DHT22;46342;49.046;11.920;2022-08-01T10:08:47;28.10;43.50
60495;DHT22;46342;49.046;11.920;2022-08-01T10:11:13;28.10;43.30
60495;DHT22;46342;49.046;11.920;2022-08-01T10:13:38;28.20;43.20
60495;DHT22;46342;49.046;11.920;2022-08-01T10:16:04;28.20;43.10
60495;DHT22;46342;49.046;11.920;2022-08-01T10:18:31;28.20;43.10
60495;DHT22;46342;49.046;11.920;2022-08-01T10:20:57;28.30;43.00
60495;DHT22;46342;49.046;11.920;2022-08-01T10:23:26;28.30;43.00
60495;DHT22;46342;49.046;11.920;2022-08-01T10:25:55;28.30;42.90
60495;DHT22;46342;49.046;11.920;2022-08-01T10:28:20;28.30;42.90
60495;DHT22;46342;49.046;11.920;2022-08-01T10:30:46;28.40;42.90
60495;DHT22;46342;49.046;11.920;2022-08-01T10:33:12;28.40;42.60
60495;DHT22;46342;49.046;11.920;2022-08-01T10:35:38;28.50;42.70
60495;DHT22;46342;49.046;11.920;2022-08-01T10:38:04;28.50;42.70
60495;DHT22;46342;49.046;11.920;2022-08-01T10:40:30;28.60;42.70
60495;DHT22;46342;49.046;11.920;2022-08-01T10:42:56;28.60;42.50
60495;DHT22;46342;49.046;11.920;2022-08-01T10:45:21;28.70;42.50
60495;DHT22;46342;49.046;11.920;2022-08-01T10:47:48;28.70;42.60
60495;DHT22;46342;49.046;11.920;2022-08-01T10:58:22;29.00;42.50
60495;DHT22;46342;49.046;11.920;2022-08-01T11:00:48;29.10;42.60
60495;DHT22;46342;49.046;11.920;2022-08-01T11:03:13;29.20;42.40
60495;DHT22;46342;49.046;11.920;2022-08-01T11:05:39;29.30;42.10
60495;DHT22;46342;49.046;11.920;2022-08-01T11:08:10;29.40;42.00
60495;DHT22;46342;49.046;11.920;2022-08-01T11:10:45;29.40;41.70
60495;DHT22;46342;49.046;11.920;2022-08-01T11:13:12;29.40;41.70
60495;DHT22;46342;49.046;11.920;2022-08-01T11:15:38;29.50;41.80
60495;DHT22;46342;49.046;11.920;2022-08-01T11:20:58;29.50;41.50
60495;DHT22;46342;49.046;11.920;2022-08-01T11:23:24;29.50;41.50
60495;DHT22;46342;49.046;11.920;2022-08-01T11:33:07;29.50;41.20
60495;DHT22;46342;49.046;11.920;2022-08-01T11:35:33;29.50;41.40
60495;DHT22;46342;49.046;11.920;2022-08-01T11:40:43;29.50;41.20
60495;DHT22;46342;49.046;11.920;2022-08-01T11:45:54;29.60;41.40
60495;DHT22;46342;49.046;11.920;2022-08-01T11:48:23;29.70;41.40
60495;DHT22;46342;49.046;11.920;2022-08-01T11:50:50;29.80;41.50
60495;DHT22;46342;49.046;11.920;2022-08-01T11:53:16;29.90;41.70
60495;DHT22;46342;49.046;11.920;2022-08-01T11:55:47;30.00;41.30
60495;DHT22;46342;49.046;11.920;2022-08-01T11:58:13;30.10;40.90
60495;DHT22;46342;49.046;11.920;2022-08-01T12:00:39;30.20;41.00
60495;DHT22;46342;49.046;11.920;2022-08-01T12:03:06;30.20;40.80
60495;DHT22;46342;49.046;11.920;2022-08-01T12:05:32;30.30;40.40
60495;DHT22;46342;49.046;11.920;2022-08-01T12:07:59;30.30;40.70
60495;DHT22;46342;49.046;11.920;2022-08-01T12:10:25;30.30;41.10
60495;DHT22;46342;49.046;11.920;2022-08-01T12:12:52;30.30;40.40
60495;DHT22;46342;49.046;11.920;2022-08-01T12:15:19;30.30;40.30
60495;DHT22;46342;49.046;11.920;2022-08-01T12:17:45;30.30;40.10
60495;DHT22;46342;49.046;11.920;2022-08-01T12:20:12;30.40;40.20
60495;DHT22;46342;49.046;11.920;2022-08-01T12:22:38;30.30;40.00
60495;DHT22;46342;49.046;11.920;2022-08-01T12:25:04;30.30;40.00
60495;DHT22;46342;49.046;11.920;2022-08-01T12:27:30;30.30;40.10
60495;DHT22;46342;49.046;11.920;2022-08-01T12:29:57;30.30;39.80
60495;DHT22;46342;49.046;11.920;2022-08-01T12:32:23;30.30;39.80
60495;DHT22;46342;49.046;11.920;2022-08-01T12:34:49;30.30;39.50
60495;DHT22;46342;49.046;11.920;2022-08-01T12:37:15;30.30;39.70
60495;DHT22;46342;49.046;11.920;2022-08-01T12:39:41;30.30;39.70
60495;DHT22;46342;49.046;11.920;2022-08-01T12:42:07;30.30;39.60
60495;DHT22;46342;49.046;11.920;2022-08-01T12:44:33;30.40;39.50
60495;DHT22;46342;49.046;11.920;2022-08-01T12:46:58;30.40;39.80
60495;DHT22;46342;49.046;11.920;2022-08-01T12:49:25;30.50;39.60
60495;DHT22;46342;49.046;11.920;2022-08-01T12:51:52;30.50;39.30
60495;DHT22;46342;49.046;11.920;2022-08-01T12:54:18;30.60;39.50
60495;DHT22;46342;49.046;11.920;2022-08-01T12:56:44;30.60;39.70
60495;DHT22;46342;49.046;11.920;2022-08-01T12:59:20;30.70;39.80
60495;DHT22;46342;49.046;11.920;2022-08-01T13:01:46;30.80;39.40
60495;DHT22;46342;49.046;11.920;2022-08-01T13:04:12;30.90;39.60
60495;DHT22;46342;49.046;11.920;2022-08-01T13:06:37;31.00;39.40
60495;DHT22;46342;49.046;11.920;2022-08-01T13:09:06;31.00;39.20
60495;DHT22;46342;49.046;11.920;2022-08-01T13:11:32;31.10;39.40
60495;DHT22;46342;49.046;11.920;2022-08-01T13:13:57;31.20;39.20
60495;DHT22;46342;49.046;11.920;2022-08-01T13:16:24;31.30;39.20
60495;DHT22;46342;49.046;11.920;2022-08-01T13:18:51;31.40;39.20
60495;DHT22;46342;49.046;11.920;2022-08-01T13:21:23;31.40;39.20
60495;DHT22;46342;49.046;11.920;2022-08-01T13:29:09;31.80;39.20
60495;DHT22;46342;49.046;11.920;2022-08-01T13:31:35;32.00;38.80
60495;DHT22;46342;49.046;11.920;2022-08-01T13:34:01;32.10;38.40
60495;DHT22;46342;49.046;11.920;2022-08-01T13:36:27;32.10;38.10
60495;DHT22;46342;49.046;11.920;2022-08-01T13:38:57;32.20;38.10
60495;DHT22;46342;49.046;11.920;2022-08-01T13:41:41;32.20;37.70
60495;DHT22;46342;49.046;11.920;2022-08-01T13:44:07;32.20;38.00
60495;DHT22;46342;49.046;11.920;2022-08-01T13:46:34;32.20;37.80
60495;DHT22;46342;49.046;11.920;2022-08-01T13:49:00;32.20;37.70
60495;DHT22;46342;49.046;11.920;2022-08-01T13:51:25;32.20;37.70
60495;DHT22;46342;49.046;11.920;2022-08-01T13:53:50;32.20;37.60
60495;DHT22;46342;49.046;11.920;2022-08-01T13:56:16;32.20;37.40
60495;DHT22;46342;49.046;11.920;2022-08-01T13:58:42;32.20;37.30
60495;DHT22;46342;49.046;11.920;2022-08-01T14:01:08;32.20;37.40
60495;DHT22;46342;49.046;11.920;2022-08-01T14:03:34;32.30;37.40
60495;DHT22;46342;49.046;11.920;2022-08-01T14:05:59;32.30;37.70
60495;DHT22;46342;49.046;11.920;2022-08-01T14:08:25;32.40;37.50
60495;DHT22;46342;49.046;11.920;2022-08-01T14:10:51;32.50;37.60
60495;DHT22;46342;49.046;11.920;2022-08-01T14:13:18;32.50;37.40
60495;DHT22;46342;49.046;11.920;2022-08-01T14:15:44;32.60;36.70
60495;DHT22;46342;49.046;11.920;2022-08-01T14:18:09;32.60;36.80
60495;DHT22;46342;49.046;11.920;2022-08-01T14:20:35;32.70;36.90
60495;DHT22;46342;49.046;11.920;2022-08-01T14:23:02;32.80;37.00
60495;DHT22;46342;49.046;11.920;2022-08-01T14:25:27;32.80;36.90
60495;DHT22;46342;49.046;11.920;2022-08-01T14:27:53;32.90;36.70
60495;DHT22;46342;49.046;11.920;2022-08-01T14:30:18;33.00;36.70
60495;DHT22;46342;49.046;11.920;2022-08-01T14:32:44;33.10;36.80
60495;DHT22;46342;49.046;11.920;2022-08-01T14:35:09;33.20;36.50
60495;DHT22;46342;49.046;11.920;2022-08-01T14:37:35;33.30;37.00
60495;DHT22;46342;49.046;11.920;2022-08-01T14:40:00;33.40;36.40
60495;DHT22;46342;49.046;11.920;2022-08-01T14:42:30;33.50;36.30
60495;DHT22;46342;49.046;11.920;2022-08-01T14:44:56;33.50;36.10
60495;DHT22;46342;49.046;11.920;2022-08-01T14:47:22;33.60;36.20
60495;DHT22;46342;49.046;11.920;2022-08-01T14:49:48;33.60;35.20
60495;DHT22;46342;49.046;11.920;2022-08-01T14:52:13;33.60;35.20
60495;DHT22;46342;49.046;11.920;2022-08-01T14:54:39;33.70;35.30
60495;DHT22;46342;49.046;11.920;2022-08-01T14:57:04;33.70;35.10
60495;DHT22;46342;49.046;11.920;2022-08-01T14:59:30;33.70;35.00
60495;DHT22;46342;49.046;11.920;2022-08-01T15:01:55;33.70;35.10
60495;DHT22;46342;49.046;11.920;2022-08-01T15:04:20;33.70;34.70
60495;DHT22;46342;49.046;11.920;2022-08-01T15:06:46;33.70;34.90
60495;DHT22;46342;49.046;11.920;2022-08-01T15:09:12;33.80;35.20
60495;DHT22;46342;49.046;11.920;2022-08-01T15:11:37;33.80;34.50
60495;DHT22;46342;49.046;11.920;2022-08-01T15:14:03;33.80;34.60
60495;DHT22;46342;49.046;11.920;2022-08-01T15:16:46;33.80;34.50
60495;DHT22;46342;49.046;11.920;2022-08-01T15:19:12;33.70;34.60
60495;DHT22;46342;49.046;11.920;2022-08-01T15:21:38;33.70;34.40
60495;DHT22;46342;49.046;11.920;2022-08-01T15:24:03;33.70;34.70
60495;DHT22;46342;49.046;11.920;2022-08-01T15:26:29;33.60;34.20
60495;DHT22;46342;49.046;11.920;2022-08-01T15:28:55;33.50;34.40
60495;DHT22;46342;49.046;11.920;2022-08-01T15:31:20;33.50;34.60
60495;DHT22;46342;49.046;11.920;2022-08-01T15:33:46;33.40;34.60
60495;DHT22;46342;49.046;11.920;2022-08-01T15:36:11;33.30;34.50
60495;DHT22;46342;49.046;11.920;2022-08-01T15:38:37;33.30;34.30
60495;DHT22;46342;49.046;11.920;2022-08-01T15:41:02;33.30;34.60
60495;DHT22;46342;49.046;11.920;2022-08-01T15:43:28;33.30;34.50
60495;DHT22;46342;49.046;11.920;2022-08-01T15:45:53;33.30;34.60
60495;DHT22;46342;49.046;11.920;2022-08-01T15:48:18;33.30;34.70
60495;DHT22;46342;49.046;11.920;2022-08-01T15:50:44;33.30;34.50
60495;DHT22;46342;49.046;11.920;2022-08-01T15:53:10;33.30;34.40
60495;DHT22;46342;49.046;11.920;2022-08-01T15:55:36;33.20;34.30
60495;DHT22;46342;49.046;11.920;2022-08-01T15:58:02;33.10;34.50
60495;DHT22;46342;49.046;11.920;2022-08-01T16:00:28;33.10;34.60
60495;DHT22;46342;49.046;11.920;2022-08-01T16:02:53;33.10;34.90
60495;DHT22;46342;49.046;11.920;2022-08-01T16:05:20;33.00;34.60
60495;DHT22;46342;49.046;11.920;2022-08-01T16:07:45;33.00;34.50
60495;DHT22;46342;49.046;11.920;2022-08-01T16:10:11;32.90;34.50
60495;DHT22;46342;49.046;11.920;2022-08-01T16:12:36;32.90;34.70
60495;DHT22;46342;49.046;11.920;2022-08-01T16:15:02;32.80;34.70
60495;DHT22;46342;49.046;11.920;2022-08-01T16:17:27;32.80;34.70
60495;DHT22;46342;49.046;11.920;2022-08-01T16:19:53;32.70;34.70
60495;DHT22;46342;49.046;11.920;2022-08-01T16:22:18;32.70;34.80
60495;DHT22;46342;49.046;11.920;2022-08-01T16:24:44;32.70;34.70
60495;DHT22;46342;49.046;11.920;2022-08-01T16:27:10;32.60;34.70
60495;DHT22;46342;49.046;11.920;2022-08-01T16:29:35;32.60;34.60
60495;DHT22;46342;49.046;11.920;2022-08-01T16:32:01;32.50;34.60
60495;DHT22;46342;49.046;11.920;2022-08-01T16:34:27;32.50;34.70
60495;DHT22;46342;49.046;11.920;2022-08-01T16:36:52;32.40;34.60
60495;DHT22;46342;49.046;11.920;2022-08-01T16:39:19;32.40;34.50
60495;DHT22;46342;49.046;11.920;2022-08-01T16:41:46;32.30;34.40
60495;DHT22;46342;49.046;11.920;2022-08-01T16:44:11;32.30;35.10
60495;DHT22;46342;49.046;11.920;2022-08-01T16:46:37;32.20;34.60
60495;DHT22;46342;49.046;11.920;2022-08-01T16:49:02;32.10;34.50
60495;DHT22;46342;49.046;11.920;2022-08-01T16:51:28;32.00;34.30
60495;DHT22;46342;49.046;11.920;2022-08-01T16:53:53;31.90;34.30
60495;DHT22;46342;49.046;11.920;2022-08-01T16:56:19;31.90;34.50
60495;DHT22;46342;49.046;11.920;2022-08-01T16:58:45;31.80;34.60
60495;DHT22;46342;49.046;11.920;2022-08-01T17:01:11;31.80;34.60
60495;DHT22;46342;49.046;11.920;2022-08-01T17:03:36;31.70;34.70
60495;DHT22;46342;49.046;11.920;2022-08-01T17:06:02;31.60;34.70
60495;DHT22;46342;49.046;11.920;2022-08-01T17:08:28;31.60;34.70
60495;DHT22;46342;49.046;11.920;2022-08-01T17:10:54;31.60;34.80
60495;DHT22;46342;49.046;11.920;2022-08-01T17:13:19;31.50;34.90
60495;DHT22;46342;49.046;11.920;2022-08-01T17:15:48;31.50;34.90
60495;DHT22;46342;49.046;11.920;2022-08-01T17:18:13;31.40;35.00
60495;DHT22;46342;49.046;11.920;2022-08-01T17:20:39;31.40;35.20
60495;DHT22;46342;49.046;11.920;2022-08-01T17:23:05;31.30;35.20
60495;DHT22;46342;49.046;11.920;2022-08-01T17:25:31;31.30;35.20
60495;DHT22;46342;49.046;11.920;2022-08-01T17:27:56;31.20;35.20
60495;DHT22;46342;49.046;11.920;2022-08-01T17:30:22;31.20;35.40
60495;DHT22;46342;49.046;11.920;2022-08-01T17:32:48;31.10;35.40
60495;DHT22;46342;49.046;11.920;2022-08-01T17:35:14;31.10;35.40
60495;DHT22;46342;49.046;11.920;2022-08-01T17:37:39;31.00;35.40
60495;DHT22;46342;49.046;11.920;2022-08-01T17:40:05;31.00;35.50
60495;DHT22;46342;49.046;11.920;2022-08-01T17:42:30;30.90;35.50
60495;DHT22;46342;49.046;11.920;2022-08-01T17:44:56;30.90;35.70
60495;DHT22;46342;49.046;11.920;2022-08-01T17:47:25;30.80;35.80
60495;DHT22;46342;49.046;11.920;2022-08-01T17:49:51;30.80;35.70
60495;DHT22;46342;49.046;11.920;2022-08-01T17:52:16;30.70;35.70
60495;DHT22;46342;49.046;11.920;2022-08-01T17:54:42;30.60;35.80
60495;DHT22;46342;49.046;11.920;2022-08-01T17:57:08;30.60;35.80
60495;DHT22;46342;49.046;11.920;2022-08-01T17:59:34;30.50;35.90
60495;DHT22;46342;49.046;11.920;2022-08-01T18:02:00;30.50;36.10
60495;DHT22;46342;49.046;11.920;2022-08-01T18:04:25;30.40;36.20
60495;DHT22;46342;49.046;11.920;2022-08-01T18:06:51;30.40;36.30
60495;DHT22;46342;49.046;11.920;2022-08-01T18:09:17;30.30;36.20
60495;DHT22;46342;49.046;11.920;2022-08-01T18:11:42;30.30;36.30
60495;DHT22;46342;49.046;11.920;2022-08-01T18:14:08;30.20;36.40
60495;DHT22;46342;49.046;11.920;2022-08-01T18:16:33;30.10;36.50
60495;DHT22;46342;49.046;11.920;2022-08-01T18:18:59;30.10;36.60
60495;DHT22;46342;49.046;11.920;2022-08-01T18:21:24;30.00;36.60
60495;DHT22;46342;49.046;11.920;2022-08-01T18:23:50;30.00;36.60
60495;DHT22;46342;49.046;11.920;2022-08-01T18:26:15;29.90;36.70
60495;DHT22;46342;49.046;11.920;2022-08-01T18:28:41;29.80;36.70
60495;DHT22;46342;49.046;11.920;2022-08-01T18:31:07;29.80;36.30
60495;DHT22;46342;49.046;11.920;2022-08-01T18:33:33;29.70;36.90
60495;DHT22;46342;49.046;11.920;2022-08-01T18:35:59;29.60;36.90
60495;DHT22;46342;49.046;11.920;2022-08-01T18:38:24;29.60;37.00
60495;DHT22;46342;49.046;11.920;2022-08-01T18:40:50;29.50;37.00
60495;DHT22;46342;49.046;11.920;2022-08-01T18:43:16;29.40;37.10
60495;DHT22;46342;49.046;11.920;2022-08-01T18:45:42;29.30;37.10
60495;DHT22;46342;49.046;11.920;2022-08-01T18:48:07;29.20;37.10
60495;DHT22;46342;49.046;11.920;2022-08-01T18:50:32;29.20;37.20
60495;DHT22;46342;49.046;11.920;2022-08-01T18:52:58;29.10;37.30
60495;DHT22;46342;49.046;11.920;2022-08-01T18:55:23;29.00;37.30
60495;DHT22;46342;49.046;11.920;2022-08-01T18:57:50;29.00;37.40
60495;DHT22;46342;49.046;11.920;2022-08-01T19:00:15;28.90;37.50
60495;DHT22;46342;49.046;11.920;2022-08-01T19:02:41;28.80;37.50
60495;DHT22;46342;49.046;11.920;2022-08-01T19:05:07;28.80;37.60
60495;DHT22;46342;49.046;11.920;2022-08-01T19:07:33;28.70;37.60
60495;DHT22;46342;49.046;11.920;2022-08-01T19:09:58;28.70;37.70
60495;DHT22;46342;49.046;11.920;2022-08-01T19:12:24;28.60;37.70
60495;DHT22;46342;49.046;11.920;2022-08-01T19:14:49;28.60;37.90
60495;DHT22;46342;49.046;11.920;2022-08-01T19:17:15;28.50;37.90
60495;DHT22;46342;49.046;11.920;2022-08-01T19:19:40;28.40;37.90
60495;DHT22;46342;49.046;11.920;2022-08-01T19:22:07;28.40;38.10
60495;DHT22;46342;49.046;11.920;2022-08-01T19:24:32;28.30;37.60
60495;DHT22;46342;49.046;11.920;2022-08-01T19:26:58;28.30;37.70
60495;DHT22;46342;49.046;11.920;2022-08-01T19:29:25;28.20;38.20
60495;DHT22;46342;49.046;11.920;2022-08-01T19:31:52;28.20;38.30
60495;DHT22;46342;49.046;11.920;2022-08-01T19:34:19;28.10;38.40